Terminal Aerodrome Forecast
Issued by NWS Houston/Galveston, TX

Home | Current Version | Previous Version | Text Only | Print | Product List | Glossary On
Versions: 1 2 3 4 5 6 7 8 9 10 11 12 13 14 15 16 17 18 19 20 21 22 23 24 25 26 27 28 29 30 31 32 33 34 35 36 37 38 39 40
000
FTUS44 KHGX 260530
TAFGLS
TAF
KGLS 260530Z 2606/2706 VRB03KT P6SM SCT100 BKN250
     FM260800 28003KT P6SM -RA VCTS SCT025CB
      TEMPO 2610/2614 VRB10G20KT TSRA BKN025CB
     FM261500 20008KT P6SM VCTS SCT025CB BKN250
     FM262100 19010KT P6SM FEW035
     FM270300 20010KT P6SM VCSH SCT150=

USA.gov is the U.S. government's official web portal to all federal, state and local government web resources and services.